sensor_id;sensor_type;location;lat;lon;timestamp;pressure;altitude;pressure_sealevel;temperature;humidity
13420;BME280;6781;58.440;15.470;2023-12-04T03:42:34;101947.41;;;-6.25;100.00
13420;BME280;6781;58.440;15.470;2023-12-04T03:45:04;101959.28;;;-6.16;100.00
13420;BME280;6781;58.440;15.470;2023-12-04T03:47:31;101936.31;;;-6.37;100.00
13420;BME280;6781;58.440;15.470;2023-12-04T03:49:58;101941.34;;;-6.37;100.00
13420;BME280;6781;58.440;15.470;2023-12-04T03:52:25;101957.53;;;-6.21;100.00
13420;BME280;6781;58.440;15.470;2023-12-04T03:54:52;101943.03;;;-6.38;100.00
13420;BME280;6781;58.440;15.470;2023-12-04T03:57:19;101944.00;;;-6.27;100.00
13420;BME280;6781;58.440;15.470;2023-12-04T03:59:47;101939.66;;;-6.38;100.00
13420;BME280;6781;58.440;15.470;2023-12-04T04:02:14;101934.50;;;-6.47;100.00
13420;BME280;6781;58.440;15.470;2023-12-04T04:04:40;101946.41;;;-6.37;100.00
13420;BME280;6781;58.440;15.470;2023-12-04T04:07:08;101936.31;;;-6.37;100.00
13420;BME280;6781;58.440;15.470;2023-12-04T04:09:35;101936.13;;;-6.51;100.00
13420;BME280;6781;58.440;15.470;2023-12-04T04:12:02;101915.69;;;-6.71;100.00
13420;BME280;6781;58.440;15.470;2023-12-04T04:14:29;101862.22;;;-7.12;100.00
13420;BME280;6781;58.440;15.470;2023-12-04T04:16:57;101928.31;;;-6.71;100.00
13420;BME280;6781;58.440;15.470;2023-12-04T04:19:24;101939.38;;;-6.60;100.00
13420;BME280;6781;58.440;15.470;2023-12-04T04:21:51;101940.28;;;-6.54;100.00
13420;BME280;6781;58.440;15.470;2023-12-04T04:24:22;101933.44;;;-6.63;100.00
13420;BME280;6781;58.440;15.470;2023-12-04T04:27:03;101946.13;;;-6.59;100.00
13420;BME280;6781;58.440;15.470;2023-12-04T04:29:30;101944.50;;;-6.55;100.00
13420;BME280;6781;58.440;15.470;2023-12-04T04:31:58;101943.63;;;-6.57;100.00
13420;BME280;6781;58.440;15.470;2023-12-04T04:34:25;101932.66;;;-6.61;100.00
13420;BME280;6781;58.440;15.470;2023-12-04T04:36:52;101932.63;;;-6.62;100.00
13420;BME280;6781;58.440;15.470;2023-12-04T04:39:18;101939.38;;;-6.60;100.00
13420;BME280;6781;58.440;15.470;2023-12-04T04:41:45;101930.81;;;-6.71;100.00
13420;BME280;6781;58.440;15.470;2023-12-04T04:44:12;101923.22;;;-6.74;100.00
13420;BME280;6781;58.440;15.470;2023-12-04T04:46:38;101911.25;;;-6.89;100.00
13420;BME280;6781;58.440;15.470;2023-12-04T04:49:07;101909.53;;;-6.91;100.00
13420;BME280;6781;58.440;15.470;2023-12-04T04:51:34;101890.84;;;-7.08;100.00
13420;BME280;6781;58.440;15.470;2023-12-04T04:54:01;101883.06;;;-7.24;100.00
13420;BME280;6781;58.440;15.470;2023-12-04T04:56:28;101899.84;;;-7.24;100.00
13420;BME280;6781;58.440;15.470;2023-12-04T04:58:55;101913.47;;;-7.11;100.00
13420;BME280;6781;58.440;15.470;2023-12-04T05:01:22;101927.16;;;-6.94;100.00
13420;BME280;6781;58.440;15.470;2023-12-04T05:03:49;101925.44;;;-6.98;100.00
13420;BME280;6781;58.440;15.470;2023-12-04T05:06:18;101929.56;;;-7.03;100.00
13420;BME280;6781;58.440;15.470;2023-12-04T05:08:45;101915.66;;;-7.33;100.00
13420;BME280;6781;58.440;15.470;2023-12-04T05:11:14;101894.19;;;-7.62;100.00
13420;BME280;6781;58.440;15.470;2023-12-04T05:13:41;101911.16;;;-7.52;100.00
13420;BME280;6781;58.440;15.470;2023-12-04T05:16:08;101909.59;;;-7.44;100.00
13420;BME280;6781;58.440;15.470;2023-12-04T05:18:35;101912.66;;;-7.63;100.00
13420;BME280;6781;58.440;15.470;2023-12-04T05:21:02;101921.03;;;-7.64;100.00
13420;BME280;6781;58.440;15.470;2023-12-04T05:23:31;101914.13;;;-7.74;100.00
13420;BME280;6781;58.440;15.470;2023-12-04T05:25:57;101936.22;;;-7.58;100.00
13420;BME280;6781;58.440;15.470;2023-12-04T05:28:24;101937.97;;;-7.54;100.00
13420;BME280;6781;58.440;15.470;2023-12-04T05:30:51;101935.41;;;-7.57;100.00
13420;BME280;6781;58.440;15.470;2023-12-04T05:33:18;101919.00;;;-7.83;100.00
13420;BME280;6781;58.440;15.470;2023-12-04T05:35:45;101915.50;;;-7.92;100.00
13420;BME280;6781;58.440;15.470;2023-12-04T05:38:12;101923.88;;;-7.93;100.00
13420;BME280;6781;58.440;15.470;2023-12-04T05:40:43;101951.28;;;-7.61;100.00
13420;BME280;6781;58.440;15.470;2023-12-04T05:43:10;101959.84;;;-7.51;100.00
13420;BME280;6781;58.440;15.470;2023-12-04T05:45:36;101946.25;;;-7.61;100.00
13420;BME280;6781;58.440;15.470;2023-12-04T05:48:03;101913.88;;;-7.90;100.00
13420;BME280;6781;58.440;15.470;2023-12-04T05:50:30;101916.28;;;-7.94;100.00
13420;BME280;6781;58.440;15.470;2023-12-04T05:52:57;101901.75;;;-8.09;100.00
13420;BME280;6781;58.440;15.470;2023-12-04T05:55:24;101898.31;;;-8.14;100.00
13420;BME280;6781;58.440;15.470;2023-12-04T05:57:52;101916.16;;;-8.02;100.00
13420;BME280;6781;58.440;15.470;2023-12-04T06:00:19;101903.28;;;-8.17;100.00
13420;BME280;6781;58.440;15.470;2023-12-04T06:02:47;101903.97;;;-8.26;100.00
13420;BME280;6781;58.440;15.470;2023-12-04T06:05:14;101907.22;;;-8.31;100.00
13420;BME280;6781;58.440;15.470;2023-12-04T06:07:41;101902.66;;;-8.50;100.00
13420;BME280;6781;58.440;15.470;2023-12-04T06:10:08;101909.44;;;-8.46;100.00
13420;BME280;6781;58.440;15.470;2023-12-04T06:12:35;101919.69;;;-8.37;100.00
13420;BME280;6781;58.440;15.470;2023-12-04T06:15:03;101939.22;;;-8.23;100.00
13420;BME280;6781;58.440;15.470;2023-12-04T06:17:30;101924.72;;;-8.37;100.00
13420;BME280;6781;58.440;15.470;2023-12-04T06:19:57;101924.53;;;-8.46;100.00
13420;BME280;6781;58.440;15.470;2023-12-04T06:22:24;101940.88;;;-8.25;100.00
13420;BME280;6781;58.440;15.470;2023-12-04T06:24:51;101942.41;;;-8.31;100.00
13420;BME280;6781;58.440;15.470;2023-12-04T06:27:21;101926.19;;;-8.47;100.00
13420;BME280;6781;58.440;15.470;2023-12-04T06:29:48;101946.72;;;-8.26;100.00
13420;BME280;6781;58.440;15.470;2023-12-04T06:32:18;101927.00;;;-8.49;100.00
13420;BME280;6781;58.440;15.470;2023-12-04T06:34:45;101932.28;;;-8.37;100.00
13420;BME280;6781;58.440;15.470;2023-12-04T06:37:12;101935.63;;;-8.37;100.00
13420;BME280;6781;58.440;15.470;2023-12-04T06:39:40;101930.41;;;-8.46;100.00
13420;BME280;6781;58.440;15.470;2023-12-04T06:42:08;101939.09;;;-8.30;100.00
13420;BME280;6781;58.440;15.470;2023-12-04T06:44:35;101942.41;;;-8.33;100.00
13420;BME280;6781;58.440;15.470;2023-12-04T06:47:02;101922.97;;;-8.41;100.00
13420;BME280;6781;58.440;15.470;2023-12-04T06:49:31;101928.13;;;-8.35;100.00
13420;BME280;6781;58.440;15.470;2023-12-04T06:51:59;101912.88;;;-8.43;100.00
13420;BME280;6781;58.440;15.470;2023-12-04T06:54:26;101914.53;;;-8.43;100.00
13420;BME280;6781;58.440;15.470;2023-12-04T06:56:53;101897.50;;;-8.57;100.00
13420;BME280;6781;58.440;15.470;2023-12-04T06:59:20;101913.91;;;-8.32;100.00
13420;BME280;6781;58.440;15.470;2023-12-04T07:01:47;101912.25;;;-8.33;100.00
13420;BME280;6781;58.440;15.470;2023-12-04T07:04:14;101930.19;;;-8.13;100.00
13420;BME280;6781;58.440;15.470;2023-12-04T07:06:47;101884.59;;;-8.75;100.00
13420;BME280;6781;58.440;15.470;2023-12-04T07:09:14;101889.97;;;-8.57;100.00
13420;BME280;6781;58.440;15.470;2023-12-04T07:11:42;101931.78;;;-8.18;100.00
13420;BME280;6781;58.440;15.470;2023-12-04T07:14:09;101925.06;;;-8.19;100.00
13420;BME280;6781;58.440;15.470;2023-12-04T07:16:39;101946.25;;;-8.06;100.00
13420;BME280;6781;58.440;15.470;2023-12-04T07:19:07;101954.63;;;-8.07;100.00
13420;BME280;6781;58.440;15.470;2023-12-04T07:21:34;101967.31;;;-8.01;100.00
13420;BME280;6781;58.440;15.470;2023-12-04T07:24:03;101979.25;;;-7.93;100.00
13420;BME280;6781;58.440;15.470;2023-12-04T07:26:30;101975.00;;;-7.95;100.00
13420;BME280;6781;58.440;15.470;2023-12-04T07:28:57;101975.78;;;-7.98;100.00
13420;BME280;6781;58.440;15.470;2023-12-04T07:31:24;101950.78;;;-8.32;100.00
13420;BME280;6781;58.440;15.470;2023-12-04T07:33:51;101934.78;;;-8.37;100.00
13420;BME280;6781;58.440;15.470;2023-12-04T07:36:18;101935.00;;;-8.25;100.00
13420;BME280;6781;58.440;15.470;2023-12-04T07:38:45;101933.47;;;-8.17;100.00
13420;BME280;6781;58.440;15.470;2023-12-04T07:41:13;101931.91;;;-8.12;100.00
13420;BME280;6781;58.440;15.470;2023-12-04T07:43:40;101912.25;;;-8.33;100.00
13420;BME280;6781;58.440;15.470;2023-12-04T07:46:09;101873.78;;;-8.71;100.00
13420;BME280;6781;58.440;15.470;2023-12-04T07:48:35;101886.63;;;-8.56;100.00
13420;BME280;6781;58.440;15.470;2023-12-04T07:51:02;101863.88;;;-8.62;100.00
13420;BME280;6781;58.440;15.470;2023-12-04T07:53:29;101872.44;;;-8.54;100.00
13420;BME280;6781;58.440;15.470;2023-12-04T07:55:57;101883.78;;;-8.29;100.00
13420;BME280;6781;58.440;15.470;2023-12-04T07:58:25;101885.69;;;-8.17;100.00
13420;BME280;6781;58.440;15.470;2023-12-04T08:00:52;101898.31;;;-8.14;100.00
13420;BME280;6781;58.440;15.470;2023-12-04T08:03:19;101916.84;;;-8.09;100.00
13420;BME280;6781;58.440;15.470;2023-12-04T08:05:45;101916.75;;;-8.15;100.00
13420;BME280;6781;58.440;15.470;2023-12-04T08:08:12;101904.81;;;-8.25;100.00
13420;BME280;6781;58.440;15.470;2023-12-04T08:10:39;101905.66;;;-8.25;100.00
13420;BME280;6781;58.440;15.470;2023-12-04T08:13:06;101891.31;;;-8.30;100.00
13420;BME280;6781;58.440;15.470;2023-12-04T08:15:34;101880.31;;;-8.37;100.00
13420;BME280;6781;58.440;15.470;2023-12-04T08:18:01;101879.53;;;-8.31;100.00
13420;BME280;6781;58.440;15.470;2023-12-04T08:20:28;101879.88;;;-8.13;100.00
13420;BME280;6781;58.440;15.470;2023-12-04T08:22:54;101881.47;;;-8.18;100.00
13420;BME280;6781;58.440;15.470;2023-12-04T08:25:21;101886.56;;;-8.15;100.00
13420;BME280;6781;58.440;15.470;2023-12-04T08:27:48;101904.22;;;-8.12;100.00
13420;BME280;6781;58.440;15.470;2023-12-04T08:30:16;101910.06;;;-8.13;100.00
13420;BME280;6781;58.440;15.470;2023-12-04T08:32:44;101921.88;;;-8.09;100.00
13420;BME280;6781;58.440;15.470;2023-12-04T08:35:12;101901.53;;;-8.21;100.00
13420;BME280;6781;58.440;15.470;2023-12-04T08:37:39;101889.59;;;-8.31;100.00
13420;BME280;6781;58.440;15.470;2023-12-04T08:40:07;101828.50;;;-8.74;100.00
13420;BME280;6781;58.440;15.470;2023-12-04T08:42:34;101842.31;;;-8.50;100.00
13420;BME280;6781;58.440;15.470;2023-12-04T08:45:01;101857.91;;;-8.23;100.00
13420;BME280;6781;58.440;15.470;2023-12-04T08:47:31;101868.19;;;-8.11;100.00
13420;BME280;6781;58.440;15.470;2023-12-04T08:50:00;101830.88;;;-8.35;100.00
13420;BME280;6781;58.440;15.470;2023-12-04T08:52:27;101805.50;;;-8.48;100.00
13420;BME280;6781;58.440;15.470;2023-12-04T08:54:54;101765.53;;;-8.81;100.00
13420;BME280;6781;58.440;15.470;2023-12-04T08:57:21;101754.28;;;-9.00;100.00
13420;BME280;6781;58.440;15.470;2023-12-04T08:59:48;101745.97;;;-8.96;100.00
13420;BME280;6781;58.440;15.470;2023-12-04T09:02:15;101765.00;;;-8.64;100.00
13420;BME280;6781;58.440;15.470;2023-12-04T09:04:41;101730.03;;;-8.98;100.00
13420;BME280;6781;58.440;15.470;2023-12-04T09:07:10;101765.16;;;-8.55;100.00
13420;BME280;6781;58.440;15.470;2023-12-04T09:09:37;101787.31;;;-8.34;100.00
13420;BME280;6781;58.440;15.470;2023-12-04T09:12:04;101764.09;;;-8.69;100.00
13420;BME280;6781;58.440;15.470;2023-12-04T09:14:32;101795.66;;;-8.36;100.00
13420;BME280;6781;58.440;15.470;2023-12-04T09:16:59;101790.53;;;-8.42;100.00
13420;BME280;6781;58.440;15.470;2023-12-04T09:19:26;101789.72;;;-8.40;100.00
13420;BME280;6781;58.440;15.470;2023-12-04T09:21:53;101731.44;;;-9.11;100.00
13420;BME280;6781;58.440;15.470;2023-12-04T09:24:21;101747.09;;;-8.82;100.00
13420;BME280;6781;58.440;15.470;2023-12-04T09:26:48;101759.09;;;-8.67;100.00
13420;BME280;6781;58.440;15.470;2023-12-04T09:29:15;101770.28;;;-8.48;100.00
13420;BME280;6781;58.440;15.470;2023-12-04T09:31:42;101775.38;;;-8.45;100.00
13420;BME280;6781;58.440;15.470;2023-12-04T09:34:09;101780.63;;;-8.33;100.00
13420;BME280;6781;58.440;15.470;2023-12-04T09:36:35;101790.75;;;-8.27;100.00
13420;BME280;6781;58.440;15.470;2023-12-04T09:39:02;101799.31;;;-8.17;100.00
13420;BME280;6781;58.440;15.470;2023-12-04T09:41:32;101784.03;;;-8.28;100.00
13420;BME280;6781;58.440;15.470;2023-12-04T09:43:59;101784.88;;;-8.28;100.00
13420;BME280;6781;58.440;15.470;2023-12-04T09:46:26;101756.00;;;-8.51;100.00
13420;BME280;6781;58.440;15.470;2023-12-04T09:48:53;101777.47;;;-8.20;100.00
13420;BME280;6781;58.440;15.470;2023-12-04T09:51:21;101752.00;;;-8.40;100.00
13420;BME280;6781;58.440;15.470;2023-12-04T09:53:49;101762.25;;;-8.28;100.00
13420;BME280;6781;58.440;15.470;2023-12-04T09:56:16;101747.72;;;-8.45;100.00
13420;BME280;6781;58.440;15.470;2023-12-04T09:58:44;101744.25;;;-8.52;100.00
13420;BME280;6781;58.440;15.470;2023-12-04T10:01:11;101711.81;;;-8.88;100.00
13420;BME280;6781;58.440;15.470;2023-12-04T10:03:38;101732.19;;;-8.73;100.00
13420;BME280;6781;58.440;15.470;2023-12-04T10:06:06;101757.00;;;-8.41;100.00
13420;BME280;6781;58.440;15.470;2023-12-04T10:08:34;101769.84;;;-8.25;100.00
13420;BME280;6781;58.440;15.470;2023-12-04T10:11:01;101772.22;;;-8.35;100.00
13420;BME280;6781;58.440;15.470;2023-12-04T10:13:28;101773.06;;;-8.35;100.00
13420;BME280;6781;58.440;15.470;2023-12-04T10:15:56;101768.94;;;-8.28;100.00
13420;BME280;6781;58.440;15.470;2023-12-04T10:18:27;101752.91;;;-8.36;100.00
13420;BME280;6781;58.440;15.470;2023-12-04T10:20:55;101731.97;;;-8.35;100.00
13420;BME280;6781;58.440;15.470;2023-12-04T10:23:22;101729.31;;;-8.44;100.00
13420;BME280;6781;58.440;15.470;2023-12-04T10:25:49;101715.13;;;-8.39;100.00
13420;BME280;6781;58.440;15.470;2023-12-04T10:28:17;101722.88;;;-8.26;100.00
13420;BME280;6781;58.440;15.470;2023-12-04T10:30:44;101722.03;;;-8.26;100.00
13420;BME280;6781;58.440;15.470;2023-12-04T10:33:13;101706.00;;;-8.34;100.00
13420;BME280;6781;58.440;15.470;2023-12-04T10:35:40;101684.97;;;-8.39;100.00
13420;BME280;6781;58.440;15.470;2023-12-04T10:38:08;101643.47;;;-8.66;100.00
13420;BME280;6781;58.440;15.470;2023-12-04T10:40:35;101620.09;;;-8.60;100.00
13420;BME280;6781;58.440;15.470;2023-12-04T10:43:14;101597.50;;;-8.59;100.00
13420;BME280;6781;58.440;15.470;2023-12-04T10:45:41;101601.22;;;-8.35;100.00
13420;BME280;6781;58.440;15.470;2023-12-04T10:48:09;101558.94;;;-8.61;100.00
13420;BME280;6781;58.440;15.470;2023-12-04T10:50:38;101553.22;;;-8.50;100.00
13420;BME280;6781;58.440;15.470;2023-12-04T10:53:05;101521.06;;;-8.76;100.00
13420;BME280;6781;58.440;15.470;2023-12-04T10:55:32;101526.22;;;-8.67;100.00
13420;BME280;6781;58.440;15.470;2023-12-04T10:57:59;101559.34;;;-8.30;100.00
13420;BME280;6781;58.440;15.470;2023-12-04T11:00:26;101562.81;;;-8.22;100.00
13420;BME280;6781;58.440;15.470;2023-12-04T11:02:55;101536.66;;;-8.38;100.00
13420;BME280;6781;58.440;15.470;2023-12-04T11:05:23;101524.94;;;-8.36;100.00
13420;BME280;6781;58.440;15.470;2023-12-04T11:07:52;101515.78;;;-8.29;100.00
13420;BME280;6781;58.440;15.470;2023-12-04T11:10:21;101532.03;;;-8.04;100.00
13420;BME280;6781;58.440;15.470;2023-12-04T11:12:48;101515.84;;;-8.23;100.00
13420;BME280;6781;58.440;15.470;2023-12-04T11:15:19;101525.31;;;-8.04;100.00
13420;BME280;6781;58.440;15.470;2023-12-04T11:17:49;101543.16;;;-7.84;100.00
13420;BME280;6781;58.440;15.470;2023-12-04T11:20:19;101529.69;;;-7.88;100.00
13420;BME280;6781;58.440;15.470;2023-12-04T11:22:48;101522.91;;;-7.95;100.00
13420;BME280;6781;58.440;15.470;2023-12-04T11:25:17;101535.72;;;-7.75;100.00
13420;BME280;6781;58.440;15.470;2023-12-04T11:27:44;101542.63;;;-7.56;100.00
13420;BME280;6781;58.440;15.470;2023-12-04T11:30:11;101560.31;;;-7.51;100.00
13420;BME280;6781;58.440;15.470;2023-12-04T11:32:45;101548.50;;;-7.58;100.00
13420;BME280;6781;58.440;15.470;2023-12-04T11:35:12;101534.94;;;-7.69;100.00
13420;BME280;6781;58.440;15.470;2023-12-04T11:37:39;101530.84;;;-7.61;100.00
13420;BME280;6781;58.440;15.470;2023-12-04T11:40:07;101531.75;;;-7.53;100.00
13420;BME280;6781;58.440;15.470;2023-12-04T11:42:37;101515.81;;;-7.53;100.00
13420;BME280;6781;58.440;15.470;2023-12-04T11:45:05;101526.78;;;-7.45;100.00
13420;BME280;6781;58.440;15.470;2023-12-04T11:47:39;101524.44;;;-7.30;100.00
13420;BME280;6781;58.440;15.470;2023-12-04T11:50:15;101515.00;;;-7.49;100.00
13420;BME280;6781;58.440;15.470;2023-12-04T11:52:41;101539.50;;;-7.35;100.00
13420;BME280;6781;58.440;15.470;2023-12-04T11:55:08;101548.03;;;-7.19;100.00
13420;BME280;6781;58.440;15.470;2023-12-04T11:57:37;101549.81;;;-7.07;100.00
13420;BME280;6781;58.440;15.470;2023-12-04T12:00:13;101554.09;;;-7.00;100.00
13420;BME280;6781;58.440;15.470;2023-12-04T12:02:47;101553.28;;;-6.96;100.00
13420;BME280;6781;58.440;15.470;2023-12-04T12:05:14;101552.44;;;-6.92;100.00
13420;BME280;6781;58.440;15.470;2023-12-04T12:07:41;101557.53;;;-6.84;100.00
13420;BME280;6781;58.440;15.470;2023-12-04T12:10:08;101553.34;;;-6.84;100.00
13420;BME280;6781;58.440;15.470;2023-12-04T12:12:37;101555.03;;;-6.84;100.00
13420;BME280;6781;58.440;15.470;2023-12-04T12:15:05;101547.50;;;-6.80;100.00
13420;BME280;6781;58.440;15.470;2023-12-04T12:17:34;101562.63;;;-6.80;100.00
13420;BME280;6781;58.440;15.470;2023-12-04T12:20:01;101525.59;;;-6.87;100.00
13420;BME280;6781;58.440;15.470;2023-12-04T12:22:32;101530.66;;;-6.82;100.00
13420;BME280;6781;58.440;15.470;2023-12-04T12:24:58;101530.72;;;-6.78;100.00
13420;BME280;6781;58.440;15.470;2023-12-04T12:27:25;101527.34;;;-6.80;100.00
13420;BME280;6781;58.440;15.470;2023-12-04T12:29:54;101520.56;;;-6.84;100.00
13420;BME280;6781;58.440;15.470;2023-12-04T12:32:20;101522.25;;;-6.83;100.00
13420;BME280;6781;58.440;15.470;2023-12-04T12:34:47;101529.81;;;-6.84;100.00
13420;BME280;6781;58.440;15.470;2023-12-04T12:37:14;101528.19;;;-6.78;100.00
13420;BME280;6781;58.440;15.470;2023-12-04T12:39:42;101535.78;;;-6.73;100.00
13420;BME280;6781;58.440;15.470;2023-12-04T12:42:09;101532.47;;;-6.68;100.00
13420;BME280;6781;58.440;15.470;2023-12-04T12:44:39;101526.56;;;-6.68;100.00
13420;BME280;6781;58.440;15.470;2023-12-04T12:47:09;101521.50;;;-6.71;100.00
13420;BME280;6781;58.440;15.470;2023-12-04T12:49:36;101507.13;;;-6.86;100.00
13420;BME280;6781;58.440;15.470;2023-12-04T12:52:05;101529.94;;;-6.69;100.00
13420;BME280;6781;58.440;15.470;2023-12-04T12:54:33;101510.53;;;-6.78;100.00
13420;BME280;6781;58.440;15.470;2023-12-04T12:57:01;101515.66;;;-6.69;100.00
13420;BME280;6781;58.440;15.470;2023-12-04T12:59:28;101507.19;;;-6.75;100.00
13420;BME280;6781;58.440;15.470;2023-12-04T13:01:55;101514.84;;;-6.63;100.00
13420;BME280;6781;58.440;15.470;2023-12-04T13:04:24;101510.69;;;-6.53;100.00
13420;BME280;6781;58.440;15.470;2023-12-04T13:06:51;101472.63;;;-6.99;100.00
13420;BME280;6781;58.440;15.470;2023-12-04T13:09:19;101495.41;;;-6.78;100.00
13420;BME280;6781;58.440;15.470;2023-12-04T13:11:47;101484.38;;;-6.97;100.00
13420;BME280;6781;58.440;15.470;2023-12-04T13:14:14;101502.16;;;-6.77;100.00
13420;BME280;6781;58.440;15.470;2023-12-04T13:16:40;101499.63;;;-6.77;100.00
13420;BME280;6781;58.440;15.470;2023-12-04T13:19:07;101491.94;;;-6.92;100.00
13420;BME280;6781;58.440;15.470;2023-12-04T13:21:35;101490.97;;;-7.14;100.00
13420;BME280;6781;58.440;15.470;2023-12-04T13:24:03;101490.09;;;-7.17;100.00
13420;BME280;6781;58.440;15.470;2023-12-04T13:26:32;101506.97;;;-7.10;100.00
13420;BME280;6781;58.440;15.470;2023-12-04T13:28:59;101510.31;;;-7.11;100.00
13420;BME280;6781;58.440;15.470;2023-12-04T13:31:26;101501.78;;;-7.27;100.00
13420;BME280;6781;58.440;15.470;2023-12-04T13:33:54;101510.88;;;-7.41;100.00
13420;BME280;6781;58.440;15.470;2023-12-04T13:36:20;101517.53;;;-7.48;100.00
13420;BME280;6781;58.440;15.470;2023-12-04T13:38:50;101530.06;;;-7.54;100.00
13420;BME280;6781;58.440;15.470;2023-12-04T13:41:18;101537.63;;;-7.54;100.00
13420;BME280;6781;58.440;15.470;2023-12-04T13:44:05;101543.28;;;-7.75;100.00
13420;BME280;6781;58.440;15.470;2023-12-04T13:46:32;101555.19;;;-7.59;100.00
13420;BME280;6781;58.440;15.470;2023-12-04T13:48:59;101590.72;;;-7.33;100.00
13420;BME280;6781;58.440;15.470;2023-12-04T13:51:26;101578.84;;;-7.46;100.00
13420;BME280;6781;58.440;15.470;2023-12-04T13:53:54;101603.44;;;-7.22;100.00
13420;BME280;6781;58.440;15.470;2023-12-04T13:56:28;101610.19;;;-7.18;100.00
13420;BME280;6781;58.440;15.470;2023-12-04T13:59:07;101609.38;;;-7.15;100.00
13420;BME280;6781;58.440;15.470;2023-12-04T14:01:42;101623.78;;;-7.02;100.00
13420;BME280;6781;58.440;15.470;2023-12-04T14:04:09;101627.16;;;-7.02;100.00
13420;BME280;6781;58.440;15.470;2023-12-04T14:06:35;101623.84;;;-6.96;100.00
13420;BME280;6781;58.440;15.470;2023-12-04T14:09:04;101624.59;;;-7.06;100.00
13420;BME280;6781;58.440;15.470;2023-12-04T14:11:35;101624.63;;;-7.03;100.00
13420;BME280;6781;58.440;15.470;2023-12-04T14:14:02;101629.69;;;-7.00;100.00
13420;BME280;6781;58.440;15.470;2023-12-04T14:16:29;101615.38;;;-7.04;100.00
13420;BME280;6781;58.440;15.470;2023-12-04T14:18:56;101628.88;;;-6.99;100.00
13420;BME280;6781;58.440;15.470;2023-12-04T14:21:23;101633.13;;;-6.89;100.00
13420;BME280;6781;58.440;15.470;2023-12-04T14:23:50;101622.97;;;-7.01;100.00
13420;BME280;6781;58.440;15.470;2023-12-04T14:26:21;101635.63;;;-6.92;100.00
13420;BME280;6781;58.440;15.470;2023-12-04T14:28:47;101638.97;;;-6.93;100.00
13420;BME280;6781;58.440;15.470;2023-12-04T14:31:14;101639.00;;;-6.90;100.00
13420;BME280;6781;58.440;15.470;2023-12-04T14:33:41;101636.47;;;-6.90;100.00
13420;BME280;6781;58.440;15.470;2023-12-04T14:36:08;101600.81;;;-7.33;100.00
13420;BME280;6781;58.440;15.470;2023-12-04T14:38:37;101627.88;;;-7.13;100.00
13420;BME280;6781;58.440;15.470;2023-12-04T14:41:04;101621.03;;;-7.27;100.00
13420;BME280;6781;58.440;15.470;2023-12-04T14:43:33;101615.84;;;-7.39;100.00
13420;BME280;6781;58.440;15.470;2023-12-04T14:46:00;101642.91;;;-7.21;100.00
13420;BME280;6781;58.440;15.470;2023-12-04T14:48:27;101639.63;;;-7.15;100.00
13420;BME280;6781;58.440;15.470;2023-12-04T14:50:54;101645.44;;;-7.21;100.00
13420;BME280;6781;58.440;15.470;2023-12-04T14:53:21;101654.84;;;-7.05;100.00
13420;BME280;6781;58.440;15.470;2023-12-04T14:55:54;101666.69;;;-6.96;100.00
13420;BME280;6781;58.440;15.470;2023-12-04T14:58:52;101673.41;;;-6.98;100.00
13420;BME280;6781;58.440;15.470;2023-12-04T15:01:44;101679.31;;;-6.92;100.00
13420;BME280;6781;58.440;15.470;2023-12-04T15:04:40;101647.03;;;-7.29;100.00
13420;BME280;6781;58.440;15.470;2023-12-04T15:07:39;101673.22;;;-7.13;100.00
13420;BME280;6781;58.440;15.470;2023-12-04T15:10:20;101674.09;;;-7.10;100.00
13420;BME280;6781;58.440;15.470;2023-12-04T15:13:03;101676.63;;;-7.11;100.00
13420;BME280;6781;58.440;15.470;2023-12-04T15:15:48;101688.53;;;-6.98;100.00
13420;BME280;6781;58.440;15.470;2023-12-04T15:18:29;101696.97;;;-6.90;100.00
13420;BME280;6781;58.440;15.470;2023-12-04T15:21:03;101697.00;;;-6.89;100.00
13420;BME280;6781;58.440;15.470;2023-12-04T15:23:29;101692.75;;;-6.93;100.00
13420;BME280;6781;58.440;15.470;2023-12-04T15:25:55;101690.09;;;-7.06;100.00
13420;BME280;6781;58.440;15.470;2023-12-04T15:28:22;101697.84;;;-6.86;100.00
13420;BME280;6781;58.440;15.470;2023-12-04T15:30:51;101701.28;;;-6.80;100.00
13420;BME280;6781;58.440;15.470;2023-12-04T15:33:16;101699.53;;;-6.87;100.00
13420;BME280;6781;58.440;15.470;2023-12-04T15:35:45;101700.38;;;-6.85;100.00
13420;BME280;6781;58.440;15.470;2023-12-04T15:38:12;101688.56;;;-6.91;100.00
13420;BME280;6781;58.440;15.470;2023-12-04T15:40:39;101680.03;;;-7.06;100.00
13420;BME280;6781;58.440;15.470;2023-12-04T15:43:05;101674.00;;;-7.19;100.00
13420;BME280;6781;58.440;15.470;2023-12-04T15:45:31;101691.72;;;-7.13;100.00
13420;BME280;6781;58.440;15.470;2023-12-04T15:48:00;101688.25;;;-7.23;100.00
13420;BME280;6781;58.440;15.470;2023-12-04T15:50:26;101715.31;;;-7.06;100.00
13420;BME280;6781;58.440;15.470;2023-12-04T15:52:54;101718.81;;;-6.89;100.00
13420;BME280;6781;58.440;15.470;2023-12-04T15:55:20;101731.47;;;-6.84;100.00
13420;BME280;6781;58.440;15.470;2023-12-04T15:57:48;101732.34;;;-6.81;100.00
13420;BME280;6781;58.440;15.470;2023-12-04T16:00:20;101737.47;;;-6.75;100.00
13420;BME280;6781;58.440;15.470;2023-12-04T16:02:47;101727.34;;;-6.78;100.00
13420;BME280;6781;58.440;15.470;2023-12-04T16:05:15;101705.25;;;-7.03;100.00
13420;BME280;6781;58.440;15.470;2023-12-04T16:07:42;101711.13;;;-7.04;100.00
13420;BME280;6781;58.440;15.470;2023-12-04T16:10:09;101717.13;;;-6.95;100.00
13420;BME280;6781;58.440;15.470;2023-12-04T16:12:36;101708.59;;;-7.04;100.00
13420;BME280;6781;58.440;15.470;2023-12-04T16:15:03;101711.88;;;-7.11;100.00
13420;BME280;6781;58.440;15.470;2023-12-04T16:17:32;101717.72;;;-7.15;100.00
13420;BME280;6781;58.440;15.470;2023-12-04T16:20:01;101731.38;;;-6.97;100.00
13420;BME280;6781;58.440;15.470;2023-12-04T16:22:29;101737.31;;;-6.90;100.00
13420;BME280;6781;58.440;15.470;2023-12-04T16:24:56;101735.56;;;-6.99;100.00
13420;BME280;6781;58.440;15.470;2023-12-04T16:27:23;101721.97;;;-7.11;100.00